Anixter International Inc (AXE) Latest Bloomsberg Price


Mffais Ranking #550 Overall / #1 Industry
Industry: Emsodm

Number of Companies: 130 (Ranking #1378 Overall/#6 Industry)
Inflow: $ 97,200 (K) (Ranking #1090 Overall/#4 Industry)
Outflow: $ -80,003 (K)
Mffais Flow: $ 17,196 (K) (Ranking #550 Overall/#1 Industry)


Receive a FREE weekly executive review of stocks moving into the top 10, taking the top industy spot or moving up within their industry. Sent directly to your Inbox every Saturday. Sign up today and get last week's review immediately sent to you.

We value and respect your privacy. Please read our Terms and Conditions which states our firm commitment to your privacy. Your email address will not be shared with a third party, nor will it be sold or used for purposes other than subscription for the weekly review.

Owner CPOR Shares Action Qty Chg Invested (K) Total Current Value (K)
Rivulet Capital Llc 2016-03-31 443,100 New Holding 443,100 $ 23,089 $ 23,089
Carlson Capital L P 2016-03-31 642,525 Added More 295,421 $ 15,394 $ 33,481
Pzena Investment Management Llc 2016-06-30 618,924 Added More 277,240 $ 14,771 $ 32,976
Russell Frank Co 2016-03-31 195,361 Added More 154,249 $ 8,037 $ 10,180
Mesirow Financial Investment Management Us Value Equity 2016-06-30 114,820 New Holding 114,820 $ 6,117 $ 6,117
Ariel Investments Llc 2016-03-31 3,319,760 Added More 93,025 $ 4,847 $ 172,992
Prudential Financial Inc 2016-06-30 261,743 Added More 59,073 $ 3,147 $ 13,945
Kennedy Capital Management Inc 2016-03-31 49,810 New Holding 49,810 $ 2,595 $ 2,595
Bragg Financial Advisors Inc 2016-03-31 48,783 New Holding 48,783 $ 2,542 $ 2,542
Jacobs Levy Equity Management Inc 2016-03-31 37,290 New Holding 37,290 $ 1,943 $ 1,943
Euclidean Technologies Management Llc 2016-03-31 36,439 New Holding 36,439 $ 1,898 $ 1,898
Dean Capital Management 2016-03-31 33,828 New Holding 33,828 $ 1,762 $ 1,762
Macquarie Group Ltd 2016-03-31 189,099 Added More 24,282 $ 1,265 $ 9,853
First Trust Advisors Lp 2016-06-30 30,771 Added More 17,285 $ 920 $ 1,639
Dynamic Technology Lab Private Ltd 2016-06-30 15,129 New Holding 15,129 $ 806 $ 806
Tributary Capital Management Llc 2016-06-30 140,307 Added More 14,350 $ 764 $ 7,475
Blackrock Investment Management Llc 2016-06-30 132,091 Added More 11,569 $ 616 $ 7,037
Cna Financial Corp 2016-06-30 23,909 Added More 11,275 $ 600 $ 1,273
Walleye Trading Llc 2016-03-31 12,000 Added More 10,100 $ 526 $ 625
Northern Trust Corp 2016-03-31 336,677 Added More 9,015 $ 469 $ 17,544
Sterling Capital Management Llc 2016-03-31 381,174 Added More 8,584 $ 447 $ 19,862
Teachers Advisors Inc 2016-03-31 183,472 Added More 7,237 $ 377 $ 9,560
Blackrock Inc 2016-06-30 9,087 Added More 5,966 $ 317 $ 484
Bnp Paribas Arbitrage Sa 2016-06-30 13,865 Added More 5,769 $ 307 $ 738
Spot Trading L L C 2016-06-30 34,781 Added More 5,294 $ 282 $ 1,853
Profund Advisors Llc 2016-03-31 8,875 Added More 5,233 $ 272 $ 462
Zebra Capital Management Llc 2016-03-31 12,980 Added More 5,172 $ 269 $ 676
Secor Capital Advisors Lp 2016-06-30 12,244 Added More 4,907 $ 261 $ 652
Gsa Capital Partners Llp 2016-06-30 19,204 Added More 4,804 $ 255 $ 1,023
Independent Portfolio Consultants Inc 2016-06-30 11,985 Added More 4,425 $ 235 $ 638
Tower Research Capital Llc Trc 2016-06-30 4,220 New Holding 4,220 $ 224 $ 224
Rhumbline Advisers 2016-03-31 55,763 Added More 4,290 $ 223 $ 2,905
Guggenheim Capital Llc 2016-03-31 32,285 Added More 4,266 $ 222 $ 1,682
First Allied Advisory Services Inc 2016-03-31 4,251 New Holding 4,251 $ 221 $ 221
First Midwest Bank Trust Division 2016-06-30 10,638 Added More 3,387 $ 180 $ 566
Schwab Charles Investment Management Inc 2016-03-31 121,294 Added More 3,388 $ 176 $ 6,320
Trexquant Investment Lp 2016-06-30 7,732 Added More 2,964 $ 157 $ 411
California Public Employees Retirement System 2016-06-30 122,100 Added More 1,800 $ 95 $ 6,505
Cutler Group Lp 2016-06-30 15,681 Added More 1,595 $ 84 $ 835
Acrospire Investment Management Llc 2016-06-30 1,100 New Holding 1,100 $ 58 $ 58
Mutual Of America Capital Management Llc 2016-06-30 37,006 Added More 1,038 $ 55 $ 1,971
American International Group Inc 2016-03-31 21,589 Added More 971 $ 50 $ 1,125
Thrivent Financial For Lutherans 2016-03-31 13,110 Added More 920 $ 47 $ 683
Oregon Public Employees Retirement Fund 2016-06-30 6,140 Added More 800 $ 42 $ 327
Nationwide Fund Advisors 2016-06-30 21,174 Added More 541 $ 28 $ 1,128
State Of Tennessee Treasury Department 2016-03-31 22,633 Added More 533 $ 27 $ 1,179
Teacher Retirement System Of Texas 2016-06-30 4,139 Added More 509 $ 27 $ 220
Mason Street Advisors Llc 2016-03-31 5,040 Added More 470 $ 24 $ 262
Simplex Trading Llc 2016-06-30 437 New Holding 437 $ 23 $ 23
Quantbot Technologies Lp 2016-06-30 2,866 Added More 337 $ 17 $ 152
California State Teachers Retirement System 2016-06-30 60,924 Added More 294 $ 15 $ 3,246
Dreman Value Management L L C 2016-03-31 195 New Holding 195 $ 10 $ 10
Horizon Kinetics Llc 2016-03-31 10,191 Added More 168 $ 8 $ 531
Pinebridge Investments L P 2016-06-30 3,605 Added More 140 $ 7 $ 192
Chartwell Investment Partners Llc 2016-06-30 188,007 Added More 100 $ 5 $ 10,017
Nisa Investment Advisors L L C 2016-06-30 24,210 Added More 100 $ 5 $ 1,289
Arizona State Retirement System 2016-03-31 14,464 Added More 100 $ 5 $ 753
Parkside Financial Bank Trust 2016-06-30 275 Added More 23 $ 1 $ 14
Quadrant Capital Group Llc 2016-06-30 37 Added More 23 $ 1 $ 1
Comerica Bank 2016-03-31 29,099 Added More 23 $ 1 $ 1,516
Metropolitan Life Insurance Co Ny 2016-03-31 20,540 Added More 17 $ 0 $ 1,070
Zurcher Kantonalbank Zurich Cantonalbank 2016-06-30 645 No Change 0 $ 0 $ 34
Panagora Asset Management Inc 2016-03-31 452 No Change 0 $ 0 $ 23
Paradigm Asset Management Co Llc 2016-03-31 2,000 No Change 0 $ 0 $ 104
Northwestern Mutual Wealth Management Co 2016-03-31 791 No Change 0 $ 0 $ 41
Public Sector Pension Investment Board 2016-03-31 20,001 No Change 0 $ 0 $ 1,042
Old Mutual Customised Solutions Proprietary Ltd 2016-03-31 1,100 No Change 0 $ 0 $ 57
Us Financial Advisors Llc 2016-03-31 25 No Change 0 $ 0 $ 1
New York State Teachers Retirement System 2016-06-30 53,470 No Change 0 $ 0 $ 2,848
First Quadrant L P Ca 2016-06-30 45,500 No Change 0 $ 0 $ 2,424
Ls Investment Advisors Llc 2016-06-30 988 No Change 0 $ 0 $ 52
Creative Planning 2016-06-30 153 No Change 0 $ 0 $ 8
Ifp Advisors Inc 2016-03-31 76 No Change 0 $ 0 $ 3
Markston International Llc 2016-06-30 100 No Change 0 $ 0 $ 5
Metlife Securities Inc 2016-06-30 209 No Change 0 $ 0 $ 11
Swiss National Bank 2016-06-30 48,300 No Change 0 $ 0 $ 2,573
Sit Investment Associates Inc 2016-06-30 21,750 No Change 0 $ 0 $ 1,158
Fisher Asset Management Llc 2016-06-30 689,419 No Change 0 $ 0 $ 36,732
Gabelli Funds Llc 2016-06-30 11,000 No Change 0 $ 0 $ 586
Thomas White International Ltd 2016-03-31 155 No Change 0 $ 0 $ 8
Bartlett Co Llc 2016-06-30 600 No Change 0 $ 0 $ 31
Qs Investors Llc 2016-03-31 0 Sold All -5 $ -0 $ 0
Keybank National Association Oh 2016-06-30 32,812 Sold Some -13 $ -0 $ 1,748
Ftb Advisors Inc 2016-06-30 478 Sold Some -15 $ -0 $ 25
Ladenburg Thalmann Financial Services Inc 2016-03-31 814 Sold Some -19 $ -0 $ 42
Pnc Financial Services Group Inc 2016-06-30 1,350 Sold Some -42 $ -2 $ 71
Denali Advisors Llc 2016-06-30 0 Sold All -47 $ -2 $ 0
Fifth Third Bancorp 2016-03-31 55 Sold Some -79 $ -4 $ 2
Advisory Services Network Llc 2016-06-30 0 Sold All -78 $ -4 $ 0
Us Bancorp De 2016-06-30 16,463 Sold Some -148 $ -7 $ 877
Capstone Asset Management Co 2016-06-30 11,390 Sold Some -220 $ -11 $ 606
Aperio Group Llc 2016-03-31 5,030 Sold Some -227 $ -11 $ 262
Raymond James Associates 2016-03-31 35,885 Sold Some -231 $ -12 $ 1,869
Checchi Capital Advisers Llc 2016-06-30 68 Sold Some -377 $ -20 $ 3
Envestnet Asset Management Inc 2016-03-31 1,696 Sold Some -439 $ -22 $ 88
Proshare Advisors Llc 2016-03-31 4,415 Sold Some -624 $ -32 $ 230
Riverhead Capital Management Llc 2016-03-31 5,720 Sold Some -780 $ -40 $ 298
Texas Permanent School Fund 2016-06-30 21,733 Sold Some -947 $ -50 $ 1,157
Legal General Group Plc 2016-03-31 20,060 Sold Some -2,985 $ -155 $ 1,045
Regal Investment Advisors Llc 2016-06-30 53,822 Sold Some -3,223 $ -171 $ 2,867
Cubist Systematic Strategies Llc 2016-03-31 0 Sold All -3,445 $ -179 $ 0
Two Sigma Advisers Llc 2016-03-31 34,815 Sold Some -3,600 $ -187 $ 1,814
Parametric Portfolio Associates Llc 2016-03-31 72,096 Sold Some -4,073 $ -212 $ 3,756
Tudor Investment Corp Et Al 2016-03-31 0 Sold All -4,688 $ -244 $ 0
Connor Clark Lunn Investment Management Ltd 2016-03-31 0 Sold All -4,800 $ -250 $ 0
Centerstar Fund Llc 2016-06-30 6,198 Sold Some -4,776 $ -254 $ 330
Paloma Partners Management Co 2016-03-31 0 Sold All -4,967 $ -258 $ 0
Rational Advisors Llc 2016-06-30 0 Sold All -5,000 $ -266 $ 0
Los Angeles Capital Management Equity Research Inc 2016-06-30 0 Sold All -5,258 $ -280 $ 0
Laurion Capital Management Lp 2016-03-31 0 Sold All -5,700 $ -297 $ 0
Integral Derivatives Llc 2016-06-30 0 Sold All -5,765 $ -307 $ 0
Advisory Research Inc 2016-03-31 0 Sold All -6,700 $ -349 $ 0
Axa 2016-03-31 23,000 Sold Some -8,381 $ -436 $ 1,198
Balter Liquid Alternatives Llc 2016-03-31 31,388 Sold Some -9,113 $ -474 $ 1,635
New York State Common Retirement Fund 2016-06-30 86,102 Sold Some -10,321 $ -549 $ 4,587
Calvert Investment Management Inc 2016-06-30 34,907 Sold Some -10,518 $ -560 $ 1,859
Cantab Capital Partners Llp 2016-03-31 1,831 Sold Some -14,317 $ -746 $ 95
A R T Advisors Llc 2016-03-31 0 Sold All -16,744 $ -872 $ 0
Stevens Capital Management Lp 2016-03-31 0 Sold All -17,124 $ -892 $ 0
Basswood Capital Management L L C 2016-03-31 286,456 Sold Some -20,939 $ -1,091 $ 14,927
Eulav Asset Management 2016-03-31 13,800 Sold Some -23,500 $ -1,224 $ 719
Glg Partners Lp 2016-03-31 0 Sold All -28,294 $ -1,474 $ 0
Tfs Capital Llc 2016-03-31 8,184 Sold Some -37,930 $ -1,976 $ 426
Dean Investment Associates Llc 2016-06-30 43,315 Sold Some -48,655 $ -2,592 $ 2,307
Lombardia Capital Partners Llc 2016-06-30 142,189 Sold Some -86,038 $ -4,584 $ 7,575
Fiduciary Management Inc Wi 2016-03-31 1,179,057 Sold Some -88,046 $ -4,588 $ 61,440
Channing Capital Management Llc 2016-06-30 688,036 Sold Some -88,127 $ -4,695 $ 36,658
Third Avenue Management Llc 2016-03-31 719,910 Sold Some -118,754 $ -6,188 $ 37,514
Gotham Asset Management Llc 2016-03-31 0 Sold All -361,426 $ -18,833 $ 0
Royce Associates Lp 2016-06-30 808,595 Sold Some -461,380 $ -24,582 $ 43,081